Terminal Aerodrome Forecast
Issued by NWS

Current Version | Previous Version | Text Only | Print | Product List | Glossary On
Versions: 1 2 3 4 5 6 7 8 9 10 11 12 13
000
FTUS43 KMPX 242323
TAFRWF
TAF
KRWF 242323Z 2500/2524 33015G22KT P6SM SCT035
     FM251000 31010KT P6SM SKC
     FM251900 24010KT P6SM SCT040 BKN090=

USA.gov is the U.S. government's official web portal to all federal, state and local government web resources and services.